VAM | Vabird-VBD

Virtual Vabird! Aerolínea Virtual de habla hispana, desde 2011




 INFORMACIÓN METAR y TAF
METAR FOR LEVT
ADDS - METARS form results

(0841 UTC 29 October 2020)
Data provider http://aviationweather.gov/metar/data/
 
METAR text: LEVT 290830Z 25003KT 210V290 6000 VCFG FEW006 07/07 Q1027
Conditions at: LEVT (VITORIA , ES) observed 0830 UTC 29 October 2020
Temperature: 7.0°C (45°F)
Dewpoint: 7.0°C (45°F) [RH = 100%]
Pressure (altimeter): 30.32 inches Hg (1027.0 mb)
Winds: from the WSW (250 degrees) at 3 MPH (3 knots; 1.5 m/s)
Visibility: 4 miles ( 6 km)
Ceiling: at least 12,000 feet AGL
Clouds: few clouds at 600 feet AGL
Weather: VCFG  (fog in vicinity)

METAR text: LEVT 290800Z 28003KT 5000 BCFG FEW002 SCT006 06/06 Q1027
Conditions at: LEVT (VITORIA , ES) observed 0800 UTC 29 October 2020
Temperature: 6.0°C (43°F)
Dewpoint: 6.0°C (43°F) [RH = 100%]
Pressure (altimeter): 30.32 inches Hg (1027.0 mb)
Winds: from the W (280 degrees) at 3 MPH (3 knots; 1.5 m/s)
Visibility: 3 miles ( 5 km)
Ceiling: at least 12,000 feet AGL
Clouds: few clouds at 200 feet AGL
scattered clouds at 600 feet AGL
Weather: BCFG  (patches of fog)

Forecast for: LEVT (VITORIA , ES)
Text: TAF LEVT 290500Z 2906/3006 VRB04KT 9999 SCT040 TX19/2915Z TN04/2906Z
Forecast period: 0600 UTC 29 October 2020 to 0600 UTC 30 October 2020
Forecast type: FROM: standard forecast or significant change
Winds: variable direction winds at 5 MPH (4 knots; 2.1 m/s)
Visibility: 6 or more miles (10+ km)
Ceiling: at least 12,000 feet AGL
Clouds: scattered clouds at 4000 feet AGL
Weather: no significant weather forecast for this period
Text: PROB30
Forecast period: 0600 to 0800 UTC 29 October 2020
Forecast type: TEMPORARY: The following changes expected for less than half the time period
Visibility: 0.22 miles (0.35 km)
Ceiling: indefinite ceiling with vertical visibility of 100 feet AGL
Clouds: obscured sky
Weather: FG  (fog)
Text: TEMPO 2906/2908 0350 FG VV001
Forecast period: 1100 to 1800 UTC 29 October 2020
Forecast type: TEMPORARY: The following changes expected for less than half the time period
Winds: from the SW (220 degrees) at 12 MPH (10 knots; 5.1 m/s)
Visibility: missing
Ceiling: unknown
Clouds: missing
Weather: no significant weather forecast for this period

 MAPA DE AEROPUERTO

 INFORMACIÓN DE PISTA